sensor_id;sensor_type;location;lat;lon;timestamp;P1;durP1;ratioP1;P2;durP2;ratioP2
70908;SDS011;58554;52.006;5.926;2023-06-19T00:00:34;12.30;;;8.53;;
70908;SDS011;58554;52.006;5.926;2023-06-19T00:03:00;11.03;;;8.30;;
70908;SDS011;58554;52.006;5.926;2023-06-19T00:05:26;11.75;;;8.32;;
70908;SDS011;58554;52.006;5.926;2023-06-19T00:07:53;10.93;;;8.00;;
70908;SDS011;58554;52.006;5.926;2023-06-19T00:10:19;11.45;;;8.15;;
70908;SDS011;58554;52.006;5.926;2023-06-19T00:12:46;12.53;;;8.27;;
70908;SDS011;58554;52.006;5.926;2023-06-19T00:15:12;11.80;;;7.95;;
70908;SDS011;58554;52.006;5.926;2023-06-19T00:17:43;13.40;;;8.17;;
70908;SDS011;58554;52.006;5.926;2023-06-19T00:20:09;11.65;;;8.07;;
70908;SDS011;58554;52.006;5.926;2023-06-19T00:22:36;11.80;;;8.23;;
70908;SDS011;58554;52.006;5.926;2023-06-19T00:25:03;11.37;;;7.80;;
70908;SDS011;58554;52.006;5.926;2023-06-19T00:27:30;12.02;;;8.18;;
70908;SDS011;58554;52.006;5.926;2023-06-19T00:29:56;10.23;;;7.50;;
70908;SDS011;58554;52.006;5.926;2023-06-19T00:32:24;10.70;;;8.10;;
70908;SDS011;58554;52.006;5.926;2023-06-19T00:34:53;10.05;;;7.60;;
70908;SDS011;58554;52.006;5.926;2023-06-19T00:37:20;10.93;;;7.67;;
70908;SDS011;58554;52.006;5.926;2023-06-19T00:39:46;10.68;;;7.78;;
70908;SDS011;58554;52.006;5.926;2023-06-19T00:42:13;10.17;;;7.83;;
70908;SDS011;58554;52.006;5.926;2023-06-19T00:44:39;11.85;;;7.40;;
70908;SDS011;58554;52.006;5.926;2023-06-19T00:47:06;9.73;;;7.30;;
70908;SDS011;58554;52.006;5.926;2023-06-19T00:49:33;10.97;;;7.60;;
70908;SDS011;58554;52.006;5.926;2023-06-19T00:52:02;9.57;;;7.07;;
70908;SDS011;58554;52.006;5.926;2023-06-19T00:54:29;9.97;;;6.70;;
70908;SDS011;58554;52.006;5.926;2023-06-19T00:56:57;9.85;;;7.45;;
70908;SDS011;58554;52.006;5.926;2023-06-19T00:59:24;9.97;;;7.00;;
70908;SDS011;58554;52.006;5.926;2023-06-19T01:01:50;10.68;;;7.28;;
70908;SDS011;58554;52.006;5.926;2023-06-19T01:04:17;9.68;;;6.93;;
70908;SDS011;58554;52.006;5.926;2023-06-19T01:06:45;10.60;;;6.18;;
70908;SDS011;58554;52.006;5.926;2023-06-19T01:09:22;8.47;;;6.40;;
70908;SDS011;58554;52.006;5.926;2023-06-19T01:11:50;10.20;;;6.38;;
70908;SDS011;58554;52.006;5.926;2023-06-19T01:14:24;11.53;;;6.47;;
70908;SDS011;58554;52.006;5.926;2023-06-19T01:16:57;10.02;;;6.28;;
70908;SDS011;58554;52.006;5.926;2023-06-19T01:19:25;8.20;;;5.37;;
70908;SDS011;58554;52.006;5.926;2023-06-19T01:21:52;8.47;;;5.47;;
70908;SDS011;58554;52.006;5.926;2023-06-19T01:24:22;8.45;;;6.03;;
70908;SDS011;58554;52.006;5.926;2023-06-19T01:26:49;9.50;;;5.97;;
70908;SDS011;58554;52.006;5.926;2023-06-19T01:29:15;8.35;;;5.65;;
70908;SDS011;58554;52.006;5.926;2023-06-19T01:31:45;8.47;;;5.40;;
70908;SDS011;58554;52.006;5.926;2023-06-19T01:34:20;7.60;;;5.20;;
70908;SDS011;58554;52.006;5.926;2023-06-19T01:36:48;7.05;;;5.00;;
70908;SDS011;58554;52.006;5.926;2023-06-19T01:39:17;8.83;;;5.37;;
70908;SDS011;58554;52.006;5.926;2023-06-19T01:41:48;7.30;;;4.90;;
70908;SDS011;58554;52.006;5.926;2023-06-19T01:44:17;7.70;;;4.70;;
70908;SDS011;58554;52.006;5.926;2023-06-19T01:46:46;7.63;;;4.47;;
70908;SDS011;58554;52.006;5.926;2023-06-19T01:49:14;6.63;;;4.18;;
70908;SDS011;58554;52.006;5.926;2023-06-19T01:51:40;7.07;;;4.43;;
70908;SDS011;58554;52.006;5.926;2023-06-19T01:54:07;6.43;;;4.27;;
70908;SDS011;58554;52.006;5.926;2023-06-19T01:56:36;7.33;;;4.20;;
70908;SDS011;58554;52.006;5.926;2023-06-19T01:59:03;6.30;;;3.73;;
70908;SDS011;58554;52.006;5.926;2023-06-19T02:01:30;7.45;;;4.53;;
70908;SDS011;58554;52.006;5.926;2023-06-19T02:03:56;6.73;;;4.30;;
70908;SDS011;58554;52.006;5.926;2023-06-19T02:06:22;6.00;;;3.83;;
70908;SDS011;58554;52.006;5.926;2023-06-19T02:08:49;8.97;;;4.40;;
70908;SDS011;58554;52.006;5.926;2023-06-19T02:11:15;6.27;;;3.93;;
70908;SDS011;58554;52.006;5.926;2023-06-19T02:13:44;7.10;;;4.22;;
70908;SDS011;58554;52.006;5.926;2023-06-19T02:16:11;6.93;;;4.03;;
70908;SDS011;58554;52.006;5.926;2023-06-19T02:18:37;6.50;;;3.92;;
70908;SDS011;58554;52.006;5.926;2023-06-19T02:21:04;5.90;;;3.70;;
70908;SDS011;58554;52.006;5.926;2023-06-19T02:23:30;6.40;;;3.90;;
70908;SDS011;58554;52.006;5.926;2023-06-19T02:25:57;5.90;;;3.80;;
70908;SDS011;58554;52.006;5.926;2023-06-19T02:28:23;5.70;;;3.65;;
70908;SDS011;58554;52.006;5.926;2023-06-19T02:30:53;7.37;;;3.87;;
70908;SDS011;58554;52.006;5.926;2023-06-19T02:33:20;6.70;;;3.27;;
70908;SDS011;58554;52.006;5.926;2023-06-19T02:35:46;6.72;;;3.40;;
70908;SDS011;58554;52.006;5.926;2023-06-19T02:38:13;7.38;;;3.75;;
70908;SDS011;58554;52.006;5.926;2023-06-19T02:40:39;5.37;;;3.17;;
70908;SDS011;58554;52.006;5.926;2023-06-19T02:43:06;5.68;;;3.25;;
70908;SDS011;58554;52.006;5.926;2023-06-19T02:45:32;6.77;;;3.60;;
70908;SDS011;58554;52.006;5.926;2023-06-19T02:48:01;5.83;;;3.47;;
70908;SDS011;58554;52.006;5.926;2023-06-19T02:50:28;5.53;;;3.40;;
70908;SDS011;58554;52.006;5.926;2023-06-19T02:52:54;4.97;;;3.10;;
70908;SDS011;58554;52.006;5.926;2023-06-19T02:55:21;5.82;;;3.40;;
70908;SDS011;58554;52.006;5.926;2023-06-19T02:57:47;6.30;;;3.30;;
70908;SDS011;58554;52.006;5.926;2023-06-19T03:00:14;5.72;;;3.40;;
70908;SDS011;58554;52.006;5.926;2023-06-19T03:02:41;5.80;;;3.20;;
70908;SDS011;58554;52.006;5.926;2023-06-19T03:05:11;6.23;;;3.40;;
70908;SDS011;58554;52.006;5.926;2023-06-19T03:07:38;5.05;;;3.00;;
70908;SDS011;58554;52.006;5.926;2023-06-19T03:10:05;5.93;;;3.10;;
70908;SDS011;58554;52.006;5.926;2023-06-19T03:12:32;5.28;;;3.30;;
70908;SDS011;58554;52.006;5.926;2023-06-19T03:14:59;5.07;;;2.83;;
70908;SDS011;58554;52.006;5.926;2023-06-19T03:17:25;5.20;;;2.90;;
70908;SDS011;58554;52.006;5.926;2023-06-19T03:19:52;4.80;;;2.70;;
70908;SDS011;58554;52.006;5.926;2023-06-19T03:22:22;5.17;;;2.80;;
70908;SDS011;58554;52.006;5.926;2023-06-19T03:24:48;4.33;;;2.60;;
70908;SDS011;58554;52.006;5.926;2023-06-19T03:27:15;4.20;;;2.40;;
70908;SDS011;58554;52.006;5.926;2023-06-19T03:29:41;4.70;;;2.53;;
70908;SDS011;58554;52.006;5.926;2023-06-19T03:32:07;5.30;;;2.50;;
70908;SDS011;58554;52.006;5.926;2023-06-19T03:34:34;4.32;;;2.35;;
70908;SDS011;58554;52.006;5.926;2023-06-19T03:37:00;5.30;;;2.50;;
70908;SDS011;58554;52.006;5.926;2023-06-19T03:39:29;3.85;;;2.33;;
70908;SDS011;58554;52.006;5.926;2023-06-19T03:41:56;4.63;;;2.60;;
70908;SDS011;58554;52.006;5.926;2023-06-19T03:44:22;4.65;;;2.67;;
70908;SDS011;58554;52.006;5.926;2023-06-19T03:46:52;4.57;;;2.57;;
70908;SDS011;58554;52.006;5.926;2023-06-19T03:49:18;4.32;;;2.30;;
70908;SDS011;58554;52.006;5.926;2023-06-19T03:51:44;4.23;;;2.33;;
70908;SDS011;58554;52.006;5.926;2023-06-19T03:54:11;3.92;;;2.28;;
70908;SDS011;58554;52.006;5.926;2023-06-19T03:56:40;5.33;;;2.40;;
70908;SDS011;58554;52.006;5.926;2023-06-19T03:59:06;4.87;;;2.63;;
70908;SDS011;58554;52.006;5.926;2023-06-19T04:01:33;5.10;;;2.90;;
70908;SDS011;58554;52.006;5.926;2023-06-19T04:03:59;4.23;;;2.53;;
70908;SDS011;58554;52.006;5.926;2023-06-19T04:06:26;4.35;;;2.47;;
70908;SDS011;58554;52.006;5.926;2023-06-19T04:08:52;4.33;;;2.60;;
70908;SDS011;58554;52.006;5.926;2023-06-19T04:11:19;4.53;;;2.65;;
70908;SDS011;58554;52.006;5.926;2023-06-19T04:13:48;4.13;;;2.47;;
70908;SDS011;58554;52.006;5.926;2023-06-19T04:16:14;4.43;;;2.55;;
70908;SDS011;58554;52.006;5.926;2023-06-19T04:18:41;3.57;;;2.03;;
70908;SDS011;58554;52.006;5.926;2023-06-19T04:21:07;4.03;;;2.37;;
70908;SDS011;58554;52.006;5.926;2023-06-19T04:23:34;4.20;;;2.50;;
70908;SDS011;58554;52.006;5.926;2023-06-19T04:26:00;5.33;;;2.63;;
70908;SDS011;58554;52.006;5.926;2023-06-19T04:28:27;6.43;;;2.43;;
70908;SDS011;58554;52.006;5.926;2023-06-19T04:30:56;4.35;;;2.40;;
70908;SDS011;58554;52.006;5.926;2023-06-19T04:33:22;5.95;;;2.45;;
70908;SDS011;58554;52.006;5.926;2023-06-19T04:35:49;5.83;;;2.60;;
70908;SDS011;58554;52.006;5.926;2023-06-19T04:38:15;5.07;;;2.58;;
70908;SDS011;58554;52.006;5.926;2023-06-19T04:40:42;4.83;;;2.53;;
70908;SDS011;58554;52.006;5.926;2023-06-19T04:43:08;5.27;;;2.73;;
70908;SDS011;58554;52.006;5.926;2023-06-19T04:45:35;5.97;;;2.58;;
70908;SDS011;58554;52.006;5.926;2023-06-19T04:48:04;5.07;;;2.93;;
70908;SDS011;58554;52.006;5.926;2023-06-19T04:50:30;6.35;;;3.03;;
70908;SDS011;58554;52.006;5.926;2023-06-19T04:52:57;5.27;;;3.23;;
70908;SDS011;58554;52.006;5.926;2023-06-19T04:55:23;4.57;;;2.90;;
70908;SDS011;58554;52.006;5.926;2023-06-19T04:57:50;5.50;;;3.23;;
70908;SDS011;58554;52.006;5.926;2023-06-19T05:00:17;5.93;;;3.30;;
70908;SDS011;58554;52.006;5.926;2023-06-19T05:02:44;7.72;;;2.97;;
70908;SDS011;58554;52.006;5.926;2023-06-19T05:05:13;6.10;;;3.30;;
70908;SDS011;58554;52.006;5.926;2023-06-19T05:07:40;6.77;;;3.20;;
70908;SDS011;58554;52.006;5.926;2023-06-19T05:10:08;5.55;;;3.22;;
70908;SDS011;58554;52.006;5.926;2023-06-19T05:12:35;6.27;;;3.23;;
70908;SDS011;58554;52.006;5.926;2023-06-19T05:15:02;7.00;;;3.20;;
70908;SDS011;58554;52.006;5.926;2023-06-19T05:17:29;6.13;;;3.63;;
70908;SDS011;58554;52.006;5.926;2023-06-19T05:19:56;6.67;;;3.87;;
70908;SDS011;58554;52.006;5.926;2023-06-19T05:22:25;5.55;;;3.58;;
70908;SDS011;58554;52.006;5.926;2023-06-19T05:24:51;6.73;;;3.80;;
70908;SDS011;58554;52.006;5.926;2023-06-19T05:27:18;4.85;;;3.25;;
70908;SDS011;58554;52.006;5.926;2023-06-19T05:29:44;6.82;;;3.67;;
70908;SDS011;58554;52.006;5.926;2023-06-19T05:32:10;7.97;;;3.33;;
70908;SDS011;58554;52.006;5.926;2023-06-19T05:34:37;5.72;;;3.40;;
70908;SDS011;58554;52.006;5.926;2023-06-19T05:37:03;5.70;;;3.37;;
70908;SDS011;58554;52.006;5.926;2023-06-19T05:39:33;7.32;;;3.10;;
70908;SDS011;58554;52.006;5.926;2023-06-19T05:42:00;9.07;;;3.73;;
70908;SDS011;58554;52.006;5.926;2023-06-19T05:44:26;7.03;;;3.43;;
70908;SDS011;58554;52.006;5.926;2023-06-19T05:46:53;6.93;;;3.40;;
70908;SDS011;58554;52.006;5.926;2023-06-19T05:49:19;5.97;;;3.63;;
70908;SDS011;58554;52.006;5.926;2023-06-19T05:51:45;7.18;;;4.05;;
70908;SDS011;58554;52.006;5.926;2023-06-19T05:54:12;6.47;;;3.90;;
70908;SDS011;58554;52.006;5.926;2023-06-19T05:56:41;8.85;;;3.55;;
70908;SDS011;58554;52.006;5.926;2023-06-19T05:59:07;9.52;;;4.20;;
70908;SDS011;58554;52.006;5.926;2023-06-19T06:01:34;6.63;;;4.05;;
70908;SDS011;58554;52.006;5.926;2023-06-19T06:04:00;8.02;;;4.07;;
70908;SDS011;58554;52.006;5.926;2023-06-19T06:06:27;7.38;;;4.28;;
70908;SDS011;58554;52.006;5.926;2023-06-19T06:08:53;6.78;;;3.95;;
70908;SDS011;58554;52.006;5.926;2023-06-19T06:11:20;6.77;;;4.03;;
70908;SDS011;58554;52.006;5.926;2023-06-19T06:13:51;6.17;;;3.70;;
70908;SDS011;58554;52.006;5.926;2023-06-19T06:16:17;8.93;;;4.82;;
70908;SDS011;58554;52.006;5.926;2023-06-19T06:18:44;6.72;;;4.40;;
70908;SDS011;58554;52.006;5.926;2023-06-19T06:21:10;7.57;;;4.33;;
70908;SDS011;58554;52.006;5.926;2023-06-19T06:23:37;6.83;;;4.40;;
70908;SDS011;58554;52.006;5.926;2023-06-19T06:26:03;6.78;;;4.38;;
70908;SDS011;58554;52.006;5.926;2023-06-19T06:28:30;9.23;;;4.90;;
70908;SDS011;58554;52.006;5.926;2023-06-19T06:30:59;7.97;;;4.73;;
70908;SDS011;58554;52.006;5.926;2023-06-19T06:33:26;8.32;;;4.95;;
70908;SDS011;58554;52.006;5.926;2023-06-19T06:35:54;8.20;;;4.57;;
70908;SDS011;58554;52.006;5.926;2023-06-19T06:38:21;9.03;;;5.00;;
70908;SDS011;58554;52.006;5.926;2023-06-19T06:40:47;8.27;;;5.20;;
70908;SDS011;58554;52.006;5.926;2023-06-19T06:43:14;7.70;;;4.60;;
70908;SDS011;58554;52.006;5.926;2023-06-19T06:45:41;6.90;;;4.10;;
70908;SDS011;58554;52.006;5.926;2023-06-19T06:48:10;7.75;;;4.60;;
70908;SDS011;58554;52.006;5.926;2023-06-19T06:50:36;7.73;;;4.70;;
70908;SDS011;58554;52.006;5.926;2023-06-19T06:53:03;8.65;;;5.03;;
70908;SDS011;58554;52.006;5.926;2023-06-19T06:55:29;10.30;;;5.00;;
70908;SDS011;58554;52.006;5.926;2023-06-19T06:57:56;9.52;;;4.78;;
70908;SDS011;58554;52.006;5.926;2023-06-19T07:00:22;8.13;;;4.97;;
70908;SDS011;58554;52.006;5.926;2023-06-19T07:02:49;7.60;;;4.47;;
70908;SDS011;58554;52.006;5.926;2023-06-19T07:05:18;9.48;;;4.70;;
70908;SDS011;58554;52.006;5.926;2023-06-19T07:07:45;8.80;;;4.60;;
70908;SDS011;58554;52.006;5.926;2023-06-19T07:10:11;8.93;;;4.72;;
70908;SDS011;58554;52.006;5.926;2023-06-19T07:12:44;6.93;;;4.20;;
70908;SDS011;58554;52.006;5.926;2023-06-19T07:15:12;6.83;;;3.97;;
70908;SDS011;58554;52.006;5.926;2023-06-19T07:17:38;7.03;;;4.15;;
70908;SDS011;58554;52.006;5.926;2023-06-19T07:20:06;8.53;;;4.40;;
70908;SDS011;58554;52.006;5.926;2023-06-19T07:22:36;7.17;;;4.73;;
70908;SDS011;58554;52.006;5.926;2023-06-19T07:25:04;7.20;;;4.43;;
70908;SDS011;58554;52.006;5.926;2023-06-19T07:27:31;7.73;;;4.27;;
70908;SDS011;58554;52.006;5.926;2023-06-19T07:29:58;7.07;;;4.72;;
70908;SDS011;58554;52.006;5.926;2023-06-19T07:32:24;9.40;;;4.73;;
70908;SDS011;58554;52.006;5.926;2023-06-19T07:34:51;6.63;;;4.40;;
70908;SDS011;58554;52.006;5.926;2023-06-19T07:37:19;6.57;;;4.43;;
70908;SDS011;58554;52.006;5.926;2023-06-19T07:39:49;7.40;;;4.20;;
70908;SDS011;58554;52.006;5.926;2023-06-19T07:42:17;7.82;;;4.40;;
70908;SDS011;58554;52.006;5.926;2023-06-19T07:44:45;8.07;;;4.47;;
70908;SDS011;58554;52.006;5.926;2023-06-19T07:47:12;9.05;;;4.47;;
70908;SDS011;58554;52.006;5.926;2023-06-19T07:49:41;8.77;;;4.97;;
70908;SDS011;58554;52.006;5.926;2023-06-19T07:52:07;8.52;;;5.50;;
70908;SDS011;58554;52.006;5.926;2023-06-19T07:54:34;9.10;;;5.70;;
70908;SDS011;58554;52.006;5.926;2023-06-19T07:57:03;9.63;;;5.63;;
70908;SDS011;58554;52.006;5.926;2023-06-19T07:59:30;8.90;;;6.25;;
70908;SDS011;58554;52.006;5.926;2023-06-19T08:01:57;10.23;;;6.60;;
70908;SDS011;58554;52.006;5.926;2023-06-19T08:04:23;11.63;;;6.87;;
70908;SDS011;58554;52.006;5.926;2023-06-19T08:06:50;12.33;;;7.40;;
70908;SDS011;58554;52.006;5.926;2023-06-19T08:09:16;12.43;;;8.33;;
70908;SDS011;58554;52.006;5.926;2023-06-19T08:11:43;12.35;;;8.15;;
70908;SDS011;58554;52.006;5.926;2023-06-19T08:14:12;13.23;;;8.40;;
70908;SDS011;58554;52.006;5.926;2023-06-19T08:16:38;13.63;;;8.75;;
70908;SDS011;58554;52.006;5.926;2023-06-19T08:19:05;13.10;;;8.53;;
70908;SDS011;58554;52.006;5.926;2023-06-19T08:21:31;14.40;;;8.30;;
70908;SDS011;58554;52.006;5.926;2023-06-19T08:23:58;13.07;;;8.50;;
70908;SDS011;58554;52.006;5.926;2023-06-19T08:26:24;13.15;;;8.52;;
70908;SDS011;58554;52.006;5.926;2023-06-19T08:28:50;13.67;;;8.93;;
70908;SDS011;58554;52.006;5.926;2023-06-19T08:31:19;12.43;;;8.10;;
70908;SDS011;58554;52.006;5.926;2023-06-19T08:33:46;13.35;;;8.57;;
70908;SDS011;58554;52.006;5.926;2023-06-19T08:36:13;12.10;;;8.23;;
70908;SDS011;58554;52.006;5.926;2023-06-19T08:38:39;13.40;;;9.03;;
70908;SDS011;58554;52.006;5.926;2023-06-19T08:41:05;13.67;;;9.13;;
70908;SDS011;58554;52.006;5.926;2023-06-19T08:43:32;15.40;;;8.77;;
70908;SDS011;58554;52.006;5.926;2023-06-19T08:46:07;14.55;;;8.80;;
70908;SDS011;58554;52.006;5.926;2023-06-19T08:48:40;13.75;;;8.70;;
70908;SDS011;58554;52.006;5.926;2023-06-19T08:51:07;12.77;;;7.88;;
70908;SDS011;58554;52.006;5.926;2023-06-19T08:53:43;14.10;;;7.80;;
70908;SDS011;58554;52.006;5.926;2023-06-19T08:56:12;12.27;;;7.93;;
70908;SDS011;58554;52.006;5.926;2023-06-19T08:58:39;12.18;;;7.97;;
70908;SDS011;58554;52.006;5.926;2023-06-19T09:01:06;13.33;;;8.27;;
70908;SDS011;58554;52.006;5.926;2023-06-19T09:03:32;15.05;;;8.82;;
70908;SDS011;58554;52.006;5.926;2023-06-19T09:06:05;14.77;;;8.57;;
70908;SDS011;58554;52.006;5.926;2023-06-19T09:08:33;12.25;;;8.40;;
70908;SDS011;58554;52.006;5.926;2023-06-19T09:11:00;13.37;;;8.40;;
70908;SDS011;58554;52.006;5.926;2023-06-19T09:13:28;14.82;;;8.68;;
70908;SDS011;58554;52.006;5.926;2023-06-19T09:15:58;13.27;;;8.10;;
70908;SDS011;58554;52.006;5.926;2023-06-19T09:18:26;13.50;;;8.60;;
70908;SDS011;58554;52.006;5.926;2023-06-19T09:20:55;14.60;;;8.82;;
70908;SDS011;58554;52.006;5.926;2023-06-19T09:23:24;13.30;;;8.40;;
70908;SDS011;58554;52.006;5.926;2023-06-19T09:25:51;13.30;;;8.68;;
70908;SDS011;58554;52.006;5.926;2023-06-19T09:28:20;15.37;;;8.77;;
70908;SDS011;58554;52.006;5.926;2023-06-19T09:30:55;12.45;;;8.52;;
70908;SDS011;58554;52.006;5.926;2023-06-19T09:33:24;13.00;;;8.63;;
70908;SDS011;58554;52.006;5.926;2023-06-19T09:35:53;14.23;;;8.73;;
70908;SDS011;58554;52.006;5.926;2023-06-19T09:38:25;14.20;;;8.57;;
70908;SDS011;58554;52.006;5.926;2023-06-19T09:40:55;14.20;;;8.95;;
70908;SDS011;58554;52.006;5.926;2023-06-19T09:43:26;16.10;;;9.33;;
70908;SDS011;58554;52.006;5.926;2023-06-19T09:46:00;14.63;;;8.03;;
70908;SDS011;58554;52.006;5.926;2023-06-19T09:48:30;11.95;;;7.95;;
70908;SDS011;58554;52.006;5.926;2023-06-19T09:50:59;13.30;;;8.73;;
70908;SDS011;58554;52.006;5.926;2023-06-19T09:53:37;13.75;;;9.07;;
70908;SDS011;58554;52.006;5.926;2023-06-19T09:56:05;14.33;;;9.20;;
70908;SDS011;58554;52.006;5.926;2023-06-19T09:58:32;12.77;;;8.95;;
70908;SDS011;58554;52.006;5.926;2023-06-19T10:00:58;12.97;;;8.83;;
70908;SDS011;58554;52.006;5.926;2023-06-19T10:03:30;14.60;;;9.20;;
70908;SDS011;58554;52.006;5.926;2023-06-19T10:05:58;13.73;;;9.00;;
70908;SDS011;58554;52.006;5.926;2023-06-19T10:08:29;15.33;;;8.90;;
70908;SDS011;58554;52.006;5.926;2023-06-19T10:11:00;13.30;;;9.00;;
70908;SDS011;58554;52.006;5.926;2023-06-19T10:13:32;15.57;;;9.00;;
70908;SDS011;58554;52.006;5.926;2023-06-19T10:16:02;14.27;;;9.00;;
70908;SDS011;58554;52.006;5.926;2023-06-19T10:18:29;16.60;;;9.07;;
70908;SDS011;58554;52.006;5.926;2023-06-19T10:20:58;13.67;;;8.73;;
70908;SDS011;58554;52.006;5.926;2023-06-19T10:23:25;14.57;;;9.60;;
70908;SDS011;58554;52.006;5.926;2023-06-19T10:25:55;15.45;;;8.65;;
70908;SDS011;58554;52.006;5.926;2023-06-19T10:28:28;15.43;;;9.30;;
70908;SDS011;58554;52.006;5.926;2023-06-19T10:30:58;12.97;;;8.53;;
70908;SDS011;58554;52.006;5.926;2023-06-19T10:33:30;13.73;;;8.87;;
70908;SDS011;58554;52.006;5.926;2023-06-19T10:36:00;16.08;;;10.52;;
70908;SDS011;58554;52.006;5.926;2023-06-19T10:38:39;15.18;;;9.27;;
70908;SDS011;58554;52.006;5.926;2023-06-19T10:41:05;15.17;;;9.73;;
70908;SDS011;58554;52.006;5.926;2023-06-19T10:43:52;14.97;;;9.13;;
70908;SDS011;58554;52.006;5.926;2023-06-19T10:46:20;13.80;;;9.40;;
70908;SDS011;58554;52.006;5.926;2023-06-19T10:48:48;13.23;;;8.33;;
70908;SDS011;58554;52.006;5.926;2023-06-19T10:51:18;16.33;;;9.67;;
70908;SDS011;58554;52.006;5.926;2023-06-19T10:53:44;16.90;;;9.48;;
70908;SDS011;58554;52.006;5.926;2023-06-19T10:56:11;15.77;;;9.70;;
70908;SDS011;58554;52.006;5.926;2023-06-19T10:58:38;16.77;;;10.10;;
70908;SDS011;58554;52.006;5.926;2023-06-19T11:01:07;15.93;;;10.25;;
70908;SDS011;58554;52.006;5.926;2023-06-19T11:03:34;17.50;;;10.93;;
70908;SDS011;58554;52.006;5.926;2023-06-19T11:06:01;15.90;;;9.80;;
70908;SDS011;58554;52.006;5.926;2023-06-19T11:08:28;14.68;;;10.00;;
70908;SDS011;58554;52.006;5.926;2023-06-19T11:10:54;16.57;;;10.47;;
70908;SDS011;58554;52.006;5.926;2023-06-19T11:13:21;16.73;;;10.63;;
70908;SDS011;58554;52.006;5.926;2023-06-19T11:15:48;15.32;;;10.43;;
70908;SDS011;58554;52.006;5.926;2023-06-19T11:18:18;14.43;;;9.70;;
70908;SDS011;58554;52.006;5.926;2023-06-19T11:20:45;16.27;;;10.40;;
70908;SDS011;58554;52.006;5.926;2023-06-19T11:23:13;16.23;;;10.48;;
70908;SDS011;58554;52.006;5.926;2023-06-19T11:25:41;14.90;;;9.43;;
70908;SDS011;58554;52.006;5.926;2023-06-19T11:28:11;15.43;;;10.30;;
70908;SDS011;58554;52.006;5.926;2023-06-19T11:30:39;14.65;;;8.85;;
70908;SDS011;58554;52.006;5.926;2023-06-19T11:33:14;13.38;;;9.10;;
70908;SDS011;58554;52.006;5.926;2023-06-19T11:35:47;12.70;;;8.67;;
70908;SDS011;58554;52.006;5.926;2023-06-19T11:38:16;15.03;;;9.33;;
70908;SDS011;58554;52.006;5.926;2023-06-19T11:40:44;15.32;;;9.13;;
70908;SDS011;58554;52.006;5.926;2023-06-19T11:43:11;16.10;;;9.97;;
70908;SDS011;58554;52.006;5.926;2023-06-19T11:45:47;16.60;;;10.05;;
70908;SDS011;58554;52.006;5.926;2023-06-19T11:48:14;14.57;;;9.27;;
70908;SDS011;58554;52.006;5.926;2023-06-19T11:50:51;14.70;;;9.00;;
70908;SDS011;58554;52.006;5.926;2023-06-19T11:53:19;15.00;;;9.70;;
70908;SDS011;58554;52.006;5.926;2023-06-19T11:55:48;15.93;;;10.27;;
70908;SDS011;58554;52.006;5.926;2023-06-19T11:58:14;17.90;;;11.20;;
70908;SDS011;58554;52.006;5.926;2023-06-19T12:00:41;15.67;;;9.20;;
70908;SDS011;58554;52.006;5.926;2023-06-19T12:03:08;14.17;;;9.50;;
70908;SDS011;58554;52.006;5.926;2023-06-19T12:05:38;15.30;;;9.40;;
70908;SDS011;58554;52.006;5.926;2023-06-19T12:08:05;14.63;;;9.17;;
70908;SDS011;58554;52.006;5.926;2023-06-19T12:10:31;15.02;;;8.45;;
70908;SDS011;58554;52.006;5.926;2023-06-19T12:12:58;13.57;;;8.30;;
70908;SDS011;58554;52.006;5.926;2023-06-19T12:15:25;10.43;;;7.00;;
70908;SDS011;58554;52.006;5.926;2023-06-19T12:17:52;12.17;;;7.13;;
70908;SDS011;58554;52.006;5.926;2023-06-19T12:20:18;10.60;;;6.87;;
70908;SDS011;58554;52.006;5.926;2023-06-19T12:22:48;13.60;;;7.90;;
70908;SDS011;58554;52.006;5.926;2023-06-19T12:25:14;12.63;;;8.10;;
70908;SDS011;58554;52.006;5.926;2023-06-19T12:27:41;11.90;;;7.22;;
70908;SDS011;58554;52.006;5.926;2023-06-19T12:30:08;11.00;;;6.37;;
70908;SDS011;58554;52.006;5.926;2023-06-19T12:32:36;9.32;;;6.20;;
70908;SDS011;58554;52.006;5.926;2023-06-19T12:35:03;9.07;;;5.63;;
70908;SDS011;58554;52.006;5.926;2023-06-19T12:37:30;9.90;;;5.70;;
70908;SDS011;58554;52.006;5.926;2023-06-19T12:40:00;9.73;;;6.25;;
70908;SDS011;58554;52.006;5.926;2023-06-19T12:42:26;9.03;;;5.80;;
70908;SDS011;58554;52.006;5.926;2023-06-19T12:44:53;9.13;;;5.10;;
70908;SDS011;58554;52.006;5.926;2023-06-19T12:47:20;7.90;;;5.13;;
70908;SDS011;58554;52.006;5.926;2023-06-19T12:49:46;8.17;;;5.47;;
70908;SDS011;58554;52.006;5.926;2023-06-19T12:52:13;8.30;;;5.55;;
70908;SDS011;58554;52.006;5.926;2023-06-19T12:54:39;7.75;;;5.28;;
70908;SDS011;58554;52.006;5.926;2023-06-19T12:57:08;8.27;;;5.90;;
70908;SDS011;58554;52.006;5.926;2023-06-19T12:59:35;8.27;;;5.57;;
70908;SDS011;58554;52.006;5.926;2023-06-19T13:02:01;8.13;;;5.90;;
70908;SDS011;58554;52.006;5.926;2023-06-19T13:04:29;9.00;;;5.50;;
70908;SDS011;58554;52.006;5.926;2023-06-19T13:06:55;8.17;;;5.73;;
70908;SDS011;58554;52.006;5.926;2023-06-19T13:09:22;9.70;;;5.00;;
70908;SDS011;58554;52.006;5.926;2023-06-19T13:11:49;8.73;;;4.88;;
70908;SDS011;58554;52.006;5.926;2023-06-19T13:14:18;8.47;;;4.87;;
70908;SDS011;58554;52.006;5.926;2023-06-19T13:16:45;8.07;;;4.95;;
70908;SDS011;58554;52.006;5.926;2023-06-19T13:19:11;9.73;;;5.72;;
70908;SDS011;58554;52.006;5.926;2023-06-19T13:21:38;9.70;;;5.17;;
70908;SDS011;58554;52.006;5.926;2023-06-19T13:24:07;7.83;;;5.20;;
70908;SDS011;58554;52.006;5.926;2023-06-19T13:26:33;8.77;;;5.72;;
70908;SDS011;58554;52.006;5.926;2023-06-19T13:29:00;10.20;;;6.00;;
70908;SDS011;58554;52.006;5.926;2023-06-19T13:31:29;9.75;;;6.45;;
70908;SDS011;58554;52.006;5.926;2023-06-19T13:33:55;9.18;;;5.85;;
70908;SDS011;58554;52.006;5.926;2023-06-19T13:36:22;9.83;;;6.40;;
70908;SDS011;58554;52.006;5.926;2023-06-19T13:38:48;10.77;;;6.43;;
70908;SDS011;58554;52.006;5.926;2023-06-19T13:41:16;11.55;;;6.78;;
70908;SDS011;58554;52.006;5.926;2023-06-19T13:43:43;9.30;;;6.30;;
70908;SDS011;58554;52.006;5.926;2023-06-19T13:46:09;10.10;;;6.33;;
70908;SDS011;58554;52.006;5.926;2023-06-19T13:48:39;9.13;;;5.47;;
70908;SDS011;58554;52.006;5.926;2023-06-19T13:51:05;9.75;;;5.38;;
70908;SDS011;58554;52.006;5.926;2023-06-19T13:53:32;8.40;;;5.87;;
70908;SDS011;58554;52.006;5.926;2023-06-19T13:55:58;9.60;;;6.00;;
70908;SDS011;58554;52.006;5.926;2023-06-19T13:58:25;8.48;;;5.65;;
70908;SDS011;58554;52.006;5.926;2023-06-19T14:00:51;8.40;;;5.40;;
70908;SDS011;58554;52.006;5.926;2023-06-19T14:03:18;9.13;;;5.73;;
70908;SDS011;58554;52.006;5.926;2023-06-19T14:05:47;10.05;;;5.72;;
70908;SDS011;58554;52.006;5.926;2023-06-19T14:08:14;8.60;;;5.70;;
70908;SDS011;58554;52.006;5.926;2023-06-19T14:10:40;7.47;;;5.50;;
70908;SDS011;58554;52.006;5.926;2023-06-19T14:13:08;9.40;;;5.93;;
70908;SDS011;58554;52.006;5.926;2023-06-19T14:15:35;8.38;;;5.40;;
70908;SDS011;58554;52.006;5.926;2023-06-19T14:18:01;10.87;;;5.63;;
70908;SDS011;58554;52.006;5.926;2023-06-19T14:20:29;9.70;;;6.20;;
70908;SDS011;58554;52.006;5.926;2023-06-19T14:22:58;9.35;;;6.60;;
70908;SDS011;58554;52.006;5.926;2023-06-19T14:25:25;8.87;;;6.20;;
70908;SDS011;58554;52.006;5.926;2023-06-19T14:27:51;10.10;;;6.67;;
70908;SDS011;58554;52.006;5.926;2023-06-19T14:30:18;9.40;;;6.00;;
70908;SDS011;58554;52.006;5.926;2023-06-19T14:32:44;11.45;;;5.85;;
70908;SDS011;58554;52.006;5.926;2023-06-19T14:35:11;9.17;;;6.27;;
70908;SDS011;58554;52.006;5.926;2023-06-19T14:37:37;9.25;;;6.25;;
70908;SDS011;58554;52.006;5.926;2023-06-19T14:40:07;8.65;;;6.30;;
70908;SDS011;58554;52.006;5.926;2023-06-19T14:42:35;10.53;;;6.33;;